»·PEaware :: EDV3042 KSEA-KPDX

EDV3042 :: KSEA-KPDX

FLIGHT INFORMATION

Flight Status: Arrived
Operator: Unknown
More flights by this operator :: More flights under this callsign
Pilot: Alex Silvestri (7186)
Aircraft: CANADAIR CL-600 CRJ-200
(CRJ2)
More flights by this aircraft type
Origin: KSEA Seattle-Tacoma Intl
United States
Destination: KPDX Portland Intl
United States
More flights between these airports :: More routes between these airports
Route: +SEATL5 SEA BUWZO KRATR2
File this flight plan on PilotEdge
Remarks:
Altitude:
(Current/Filed)
21,000ft
Speed:
(Current/Filed)
320kts
Departed: 08-Jan-17 01:25 PM
Arrived: 08-Jan-17 01:58 PM
Distance/Time
Traveled:
112nm/0:33
Distance/Time
To Go:
Arrived

Flight Plot

Page will automatically refresh every two minutes.

Flight plan parsing failed; only flown route is shown


Map Options




Map Legend


Flown Route
Filed Route
Departure Airport
Arrival Airport
Navaid (VOR, NDB)
Fix

Horizontal Profiles

Position Reports

Time Latitude Longitude Heading Altitude Ground
Speed
08-Jan-17 12:53 47.438602 -122.300549 288 370ft 0kts
08-Jan-17 12:54 47.438602 -122.300549 288 370ft 0kts
08-Jan-17 12:55 47.438602 -122.300549 288 370ft 0kts
08-Jan-17 12:56 47.438602 -122.300549 288 370ft 0kts
08-Jan-17 12:57 47.438602 -122.300549 288 370ft 0kts
08-Jan-17 12:58 47.438602 -122.300549 288 370ft 0kts
08-Jan-17 12:59 47.438602 -122.300549 288 370ft 0kts
08-Jan-17 13:00 47.438602 -122.300549 288 370ft 0kts
08-Jan-17 13:01 47.438602 -122.300549 288 370ft 0kts
08-Jan-17 13:02 47.438602 -122.300549 288 370ft 0kts
08-Jan-17 13:03 47.438602 -122.300549 288 370ft 0kts
08-Jan-17 13:04 47.438602 -122.300549 288 370ft 0kts
08-Jan-17 13:05 47.438602 -122.300549 288 370ft 0kts
08-Jan-17 13:06 47.438602 -122.300549 288 370ft 0kts
08-Jan-17 13:07 47.438602 -122.300549 288 370ft 0kts
08-Jan-17 13:08 47.438602 -122.300549 288 370ft 0kts
08-Jan-17 13:09 47.438602 -122.300549 288 370ft 0kts
08-Jan-17 13:10 47.438602 -122.300549 288 370ft 0kts
08-Jan-17 13:11 47.438602 -122.300549 288 370ft 0kts
08-Jan-17 13:12 47.438602 -122.300549 288 370ft 0kts
08-Jan-17 13:13 47.438602 -122.300549 288 370ft 0kts
08-Jan-17 13:14 47.438602 -122.300549 288 370ft 0kts
08-Jan-17 13:15 47.438602 -122.300549 288 370ft 0kts
08-Jan-17 13:16 47.438465 -122.300238 322 370ft 0kts
08-Jan-17 13:17 47.438248 -122.300124 358 369ft 0kts
08-Jan-17 13:18 47.438879 -122.299703 27 371ft 13kts
08-Jan-17 13:19 47.439893 -122.304717 273 375ft 1kts
08-Jan-17 13:20 47.441921 -122.306354 0 380ft 20kts
08-Jan-17 13:21 47.449198 -122.306070 353 406ft 27kts
08-Jan-17 13:22 47.456577 -122.306116 0 436ft 30kts
08-Jan-17 13:23 47.463706 -122.306483 311 406ft 0kts
08-Jan-17 13:24 47.463648 -122.308401 271 394ft 23kts
08-Jan-17 13:25 47.448534 -122.310071 175 417ft 157kts
08-Jan-17 13:26 47.401474 -122.310042 175 2443ft 198kts
08-Jan-17 13:27 47.343303 -122.309518 175 5541ft 203kts
08-Jan-17 13:28 47.289743 -122.309465 175 8121ft 205kts
08-Jan-17 13:29 47.228451 -122.309453 176 10471ft 220kts
08-Jan-17 13:30 47.169840 -122.309391 177 12920ft 214kts
08-Jan-17 13:31 47.110838 -122.309295 177 15012ft 214kts
08-Jan-17 13:32 47.051620 -122.309305 178 16895ft 214kts
08-Jan-17 13:33 46.992524 -122.309308 179 18620ft 213kts
08-Jan-17 13:34 46.933654 -122.309320 181 20149ft 213kts
08-Jan-17 13:35 46.871926 -122.309388 182 20744ft 251kts
08-Jan-17 13:36 46.794818 -122.309450 181 20738ft 304kts
08-Jan-17 13:37 46.706518 -122.309431 181 20734ft 345kts
08-Jan-17 13:38 46.606584 -122.309429 181 20730ft 375kts
08-Jan-17 13:39 46.500288 -122.309419 181 20741ft 385kts
08-Jan-17 13:40 46.393385 -122.309412 181 20752ft 386kts
08-Jan-17 13:41 46.287915 -122.309466 180 19065ft 378kts
08-Jan-17 13:42 46.190008 -122.347158 198 15984ft 365kts
08-Jan-17 13:43 46.096575 -122.398813 198 12811ft 357kts
08-Jan-17 13:44 46.005519 -122.448128 196 9752ft 328kts
08-Jan-17 13:45 45.932937 -122.488265 206 6740ft 277kts
08-Jan-17 13:46 45.875889 -122.557696 219 4769ft 236kts
08-Jan-17 13:47 45.826520 -122.619137 217 4624ft 253kts
08-Jan-17 13:48 45.777029 -122.681452 218 3751ft 183kts
08-Jan-17 13:49 45.750531 -122.739740 239 3795ft 193kts
08-Jan-17 13:50 45.729850 -122.797554 239 3771ft 141kts
08-Jan-17 13:51 45.710291 -122.850867 239 3783ft 163kts
08-Jan-17 13:52 45.677371 -122.866405 117 3472ft 175kts
08-Jan-17 13:53 45.666941 -122.807017 122 2751ft 138kts
08-Jan-17 13:54 45.647718 -122.757013 120 2150ft 146kts
08-Jan-17 13:55 45.629314 -122.709547 118 1381ft 118kts
08-Jan-17 13:56 45.613724 -122.669197 117 809ft 129kts
08-Jan-17 13:57 45.597245 -122.626855 117 180ft 120kts
08-Jan-17 13:58 45.587851 -122.601329 97 18ft 14kts
08-Jan-17 13:59 45.587880 -122.600341 82 20ft 0kts
08-Jan-17 14:00 45.587880 -122.600341 82 20ft 0kts
08-Jan-17 14:01 45.587889 -122.600283 74 20ft 0kts
08-Jan-17 14:02 45.587903 -122.600223 71 20ft 0kts
08-Jan-17 14:03 45.589358 -122.601257 297 21ft 20kts
08-Jan-17 14:04 45.591619 -122.598783 25 22ft 9kts
08-Jan-17 14:05 45.592436 -122.594882 116 23ft 14kts
08-Jan-17 14:06 45.591153 -122.594077 207 22ft 0kts
08-Jan-17 14:07 45.591153 -122.594077 207 22ft 0kts

Navigation Log

Ident Type
Flight plan parsing failed, navigation log unavailable